createdAt,value
2022-12-18T00:01:40.126Z,-3.67
2022-12-18T00:04:20.489Z,-3.70
2022-12-18T00:06:52.977Z,-3.82
2022-12-18T00:09:22.481Z,-3.85
2022-12-18T00:11:53.513Z,-4.00
2022-12-18T00:14:23.122Z,-4.11
2022-12-18T00:16:55.080Z,-4.01
2022-12-18T00:19:24.205Z,-3.97
2022-12-18T00:21:54.646Z,-6.31
2022-12-18T00:24:26.399Z,-3.89
2022-12-18T00:26:57.546Z,-3.89
2022-12-18T00:29:26.244Z,-3.88
2022-12-18T00:31:56.146Z,-3.83
2022-12-18T00:34:24.811Z,-3.73
2022-12-18T00:36:56.118Z,-3.72
2022-12-18T00:39:25.310Z,-3.94
2022-12-18T00:42:14.670Z,-3.95
2022-12-18T00:44:43.463Z,-4.04
2022-12-18T00:47:13.125Z,-4.23
2022-12-18T00:49:41.892Z,-3.99
2022-12-18T00:52:12.281Z,-4.15
2022-12-18T00:54:40.955Z,-4.24
2022-12-18T00:57:12.156Z,-4.45
2022-12-18T00:59:40.926Z,-4.26
2022-12-18T01:02:09.891Z,-4.15
2022-12-18T01:04:39.465Z,-4.02
2022-12-18T01:07:09.124Z,-4.19
2022-12-18T01:09:39.903Z,-4.12
2022-12-18T01:12:09.195Z,-4.04
2022-12-18T01:14:40.002Z,-4.19
2022-12-18T01:17:09.024Z,-4.16
2022-12-18T01:19:37.810Z,-4.20
2022-12-18T01:22:06.496Z,-3.89
2022-12-18T01:24:35.408Z,-4.05
2022-12-18T01:27:09.438Z,-3.94
2022-12-18T01:29:38.190Z,-4.38
2022-12-18T01:32:07.055Z,-4.38
2022-12-18T01:34:37.147Z,-3.95
2022-12-18T01:37:06.749Z,-4.14
2022-12-18T01:39:35.720Z,-4.02
2022-12-18T01:42:11.879Z,-4.18
2022-12-18T01:44:58.987Z,-4.22
2022-12-18T01:47:32.575Z,-4.13
2022-12-18T01:50:09.217Z,-4.34
2022-12-18T01:52:43.447Z,-4.65
2022-12-18T01:55:17.488Z,-4.50
2022-12-18T01:57:49.484Z,-4.34
2022-12-18T02:00:27.696Z,-4.01
2022-12-18T02:02:57.294Z,-4.25
2022-12-18T02:05:40.063Z,-4.25
2022-12-18T02:08:20.118Z,-4.31
2022-12-18T02:10:59.361Z,-4.21
2022-12-18T02:13:38.700Z,-4.34
2022-12-18T02:16:20.117Z,-4.44
2022-12-18T02:18:55.568Z,-4.71
2022-12-18T02:21:36.500Z,-4.32
2022-12-18T02:24:27.630Z,-4.74
2022-12-18T02:27:01.533Z,-4.36
2022-12-18T02:29:39.315Z,-4.14
2022-12-18T02:32:16.207Z,-4.61
2022-12-18T02:34:46.911Z,-4.61
2022-12-18T02:37:21.634Z,-4.87
2022-12-18T02:39:55.488Z,-4.41
2022-12-18T02:42:30.579Z,-4.60
2022-12-18T02:45:12.764Z,-5.63
2022-12-18T02:47:46.284Z,-4.73
2022-12-18T02:50:27.940Z,-4.75
2022-12-18T02:53:13.629Z,-4.76
2022-12-18T02:55:54.427Z,-4.82
2022-12-18T02:58:32.106Z,-4.83
2022-12-18T03:01:14.177Z,-4.55
2022-12-18T03:03:47.164Z,-4.95
2022-12-18T03:06:23.170Z,-4.76
2022-12-18T03:09:00.100Z,-4.98
2022-12-18T03:11:47.298Z,-4.80
2022-12-18T03:14:20.997Z,-4.83
2022-12-18T03:17:03.993Z,-4.97
2022-12-18T03:19:41.181Z,-4.91
2022-12-18T03:22:12.050Z,-5.14
2022-12-18T03:24:49.962Z,-4.92
2022-12-18T03:27:26.868Z,-5.22
2022-12-18T03:30:08.655Z,-5.46
2022-12-18T03:32:44.887Z,-5.10
2022-12-18T03:35:26.515Z,-5.12
2022-12-18T03:37:55.919Z,-5.12
2022-12-18T03:40:33.493Z,-5.06
2022-12-18T03:43:13.683Z,-5.02
2022-12-18T03:45:54.343Z,-5.20
2022-12-18T03:48:31.746Z,-5.34
2022-12-18T03:51:11.072Z,-5.38
2022-12-18T03:53:50.133Z,-5.26
2022-12-18T03:56:24.740Z,-5.52
2022-12-18T03:58:55.910Z,-5.17
2022-12-18T04:01:37.455Z,-5.22
2022-12-18T04:04:14.143Z,-5.61
2022-12-18T04:06:45.699Z,-5.46
2022-12-18T04:09:16.157Z,-5.25
2022-12-18T04:11:49.618Z,-5.31
2022-12-18T04:14:23.545Z,-5.62
2022-12-18T04:16:57.786Z,-5.52
2022-12-18T04:19:33.257Z,-5.67
2022-12-18T04:22:03.844Z,-5.51
2022-12-18T04:24:46.084Z,-5.87
2022-12-18T04:27:25.584Z,-5.74
2022-12-18T04:29:57.644Z,-5.44
2022-12-18T04:32:28.449Z,-5.60
2022-12-18T04:34:59.918Z,-5.44
2022-12-18T04:37:29.085Z,-5.54
2022-12-18T04:39:58.600Z,-5.63
2022-12-18T04:42:35.682Z,-5.81
2022-12-18T04:45:06.184Z,-5.93
2022-12-18T04:47:36.628Z,-5.63
2022-12-18T04:50:10.387Z,-5.55
2022-12-18T04:52:39.762Z,-5.42
2022-12-18T04:55:09.446Z,-5.56
2022-12-18T04:57:41.099Z,-5.44
2022-12-18T05:00:14.152Z,-5.37
2022-12-18T05:02:45.801Z,-5.26
2022-12-18T05:05:18.100Z,-5.33
2022-12-18T05:07:47.048Z,-5.27
2022-12-18T05:10:15.919Z,-5.27
2022-12-18T05:13:04.625Z,-5.31
2022-12-18T05:15:35.974Z,-5.08
2022-12-18T05:18:06.842Z,-5.43
2022-12-18T05:20:35.923Z,-5.49
2022-12-18T05:23:05.262Z,-5.40
2022-12-18T05:25:37.711Z,-5.61
2022-12-18T05:28:07.394Z,-5.64
2022-12-18T05:30:38.406Z,-5.79
2022-12-18T05:33:08.683Z,-5.82
2022-12-18T05:35:37.736Z,-5.71
2022-12-18T05:38:06.866Z,-5.83
2022-12-18T05:40:38.518Z,-5.82
2022-12-18T05:43:19.388Z,-5.85
2022-12-18T05:45:53.330Z,-5.67
2022-12-18T05:48:32.555Z,-5.56
2022-12-18T05:51:12.385Z,-5.91
2022-12-18T05:53:44.864Z,-6.06
2022-12-18T05:56:17.049Z,-6.02
2022-12-18T05:58:50.925Z,-6.00
2022-12-18T06:01:25.294Z,-5.98
2022-12-18T06:03:57.851Z,-6.06
2022-12-18T06:06:30.268Z,-6.26
2022-12-18T06:08:59.684Z,-6.00
2022-12-18T06:11:29.329Z,-5.98
2022-12-18T06:13:59.587Z,-6.09
2022-12-18T06:16:30.505Z,-6.33
2022-12-18T06:19:03.034Z,-5.96
2022-12-18T06:21:32.652Z,-5.97
2022-12-18T06:24:03.134Z,-6.25
2022-12-18T06:26:32.551Z,-7.42
2022-12-18T06:29:02.954Z,-6.19
2022-12-18T06:31:32.468Z,-6.37
2022-12-18T06:34:05.243Z,-6.16
2022-12-18T06:36:34.358Z,-6.44
2022-12-18T06:39:06.144Z,-6.27
2022-12-18T06:41:35.218Z,-6.34
2022-12-18T06:44:04.154Z,-6.33
2022-12-18T06:46:33.292Z,-6.11
2022-12-18T06:49:03.733Z,-5.99
2022-12-18T06:51:32.956Z,-6.04
2022-12-18T06:54:02.123Z,-6.16
2022-12-18T06:56:31.423Z,-6.59
2022-12-18T06:59:02.442Z,-6.75
2022-12-18T07:01:31.303Z,-6.50
2022-12-18T07:04:00.100Z,-6.56
2022-12-18T07:06:33.134Z,-6.53
2022-12-18T07:09:01.882Z,-6.53
2022-12-18T07:11:30.635Z,-6.36
2022-12-18T07:13:59.372Z,-6.34
2022-12-18T07:16:29.525Z,-6.19
2022-12-18T07:19:00.613Z,-6.11
2022-12-18T07:21:31.231Z,-6.20
2022-12-18T07:24:00.280Z,-6.38
2022-12-18T07:26:29.167Z,-6.35
2022-12-18T07:28:59.176Z,-6.22
2022-12-18T07:31:31.037Z,-6.17
2022-12-18T07:34:03.036Z,-6.35
2022-12-18T07:36:33.230Z,-6.48
2022-12-18T07:39:02.220Z,-6.38
2022-12-18T07:41:31.057Z,-6.35
2022-12-18T07:44:07.449Z,-6.03
2022-12-18T07:46:36.170Z,-6.15
2022-12-18T07:49:05.283Z,-6.62
2022-12-18T07:51:35.634Z,-6.29
2022-12-18T07:54:05.766Z,-6.10
2022-12-18T07:56:34.818Z,-6.05
2022-12-18T07:59:03.810Z,-6.01
2022-12-18T08:01:32.925Z,-5.94
2022-12-18T08:04:02.630Z,-6.00
2022-12-18T08:06:32.400Z,-6.11
2022-12-18T08:09:03.316Z,-6.08
2022-12-18T08:11:32.257Z,-5.81
2022-12-18T08:14:01.409Z,-6.03
2022-12-18T08:16:31.477Z,-5.98
2022-12-18T08:19:00.879Z,-6.03
2022-12-18T08:21:31.386Z,-5.73
2022-12-18T08:24:04.620Z,-5.71
2022-12-18T08:26:33.985Z,-5.78
2022-12-18T08:29:03.556Z,-5.71
2022-12-18T08:31:34.102Z,-5.87
2022-12-18T08:34:03.379Z,-5.94
2022-12-18T08:36:32.103Z,-5.69
2022-12-18T08:39:06.285Z,-5.73
2022-12-18T08:41:35.120Z,-5.63
2022-12-18T08:44:21.381Z,-5.78
2022-12-18T08:46:52.582Z,-5.52
2022-12-18T08:49:21.413Z,-5.77
2022-12-18T08:51:50.139Z,-5.96
2022-12-18T08:54:20.168Z,-5.59
2022-12-18T08:56:48.930Z,-5.40
2022-12-18T08:59:20.123Z,-5.41
2022-12-18T09:01:50.228Z,-5.66
2022-12-18T09:04:19.306Z,-5.43
2022-12-18T09:06:48.056Z,-5.39
2022-12-18T09:09:23.163Z,-5.32
2022-12-18T09:11:51.929Z,-5.23
2022-12-18T09:14:23.243Z,-5.35
2022-12-18T09:16:52.247Z,-5.27
2022-12-18T09:19:21.005Z,-4.92
2022-12-18T09:21:50.187Z,-5.27
2022-12-18T09:24:19.994Z,-5.39
2022-12-18T09:26:54.797Z,-5.29
2022-12-18T09:29:28.721Z,-5.26
2022-12-18T09:32:00.611Z,-5.44
2022-12-18T09:34:29.593Z,-5.21
2022-12-18T09:37:01.662Z,-5.24
2022-12-18T09:39:30.917Z,-5.13
2022-12-18T09:42:04.747Z,-5.03
2022-12-18T09:44:44.672Z,-5.03
2022-12-18T09:47:20.594Z,-5.00
2022-12-18T09:49:51.060Z,-5.33
2022-12-18T09:52:23.733Z,-5.35
2022-12-18T09:55:00.874Z,-5.10
2022-12-18T09:57:35.398Z,-5.30
2022-12-18T10:00:19.705Z,-5.05
2022-12-18T10:02:49.948Z,-5.11
2022-12-18T10:05:22.767Z,-5.14
2022-12-18T10:07:57.756Z,-4.94
2022-12-18T10:10:38.659Z,-4.71
2022-12-18T10:13:17.850Z,-4.79
2022-12-18T10:15:59.507Z,-4.83
2022-12-18T10:18:40.307Z,-4.78
2022-12-18T10:21:13.772Z,-4.65
2022-12-18T10:23:49.984Z,-4.65
2022-12-18T10:26:19.417Z,-4.63
2022-12-18T10:28:56.944Z,-4.76
2022-12-18T10:31:27.798Z,-4.70
2022-12-18T10:33:57.028Z,-4.60
2022-12-18T10:36:27.249Z,-4.63
2022-12-18T10:38:55.947Z,-5.55
2022-12-18T10:41:29.427Z,-4.55
2022-12-18T10:44:29.714Z,-4.84
2022-12-18T10:47:11.661Z,-4.57
2022-12-18T10:49:51.481Z,-4.31
2022-12-18T10:52:23.274Z,-4.34
2022-12-18T10:54:54.167Z,-4.19
2022-12-18T10:57:35.603Z,-4.35
2022-12-18T11:00:27.468Z,-4.22
2022-12-18T11:02:57.976Z,-4.16
2022-12-18T11:05:32.925Z,-4.07
2022-12-18T11:08:03.422Z,-4.01
2022-12-18T11:10:34.369Z,-3.94
2022-12-18T11:13:15.084Z,-4.06
2022-12-18T11:15:46.491Z,-4.02
2022-12-18T11:18:27.532Z,-3.98
2022-12-18T11:20:59.556Z,-3.84
2022-12-18T11:23:29.579Z,-3.81
2022-12-18T11:26:01.239Z,-3.85
2022-12-18T11:28:37.895Z,-3.88
2022-12-18T11:31:21.125Z,-3.85
2022-12-18T11:34:26.752Z,-3.58
2022-12-18T11:36:48.607Z,-3.54
2022-12-18T11:39:22.488Z,-3.60
2022-12-18T11:42:12.400Z,-3.46
2022-12-18T11:44:49.010Z,-3.54
2022-12-18T11:47:31.528Z,-3.45
2022-12-18T11:50:04.085Z,-3.37
2022-12-18T11:52:40.176Z,-3.55
2022-12-18T11:55:16.297Z,-3.51
2022-12-18T11:57:54.201Z,-4.29
2022-12-18T12:00:24.566Z,-3.29
2022-12-18T12:03:25.549Z,-3.27
2022-12-18T12:06:10.189Z,-3.34
2022-12-18T12:08:51.683Z,-3.27
2022-12-18T12:11:29.708Z,-3.31
2022-12-18T12:14:12.791Z,-3.34
2022-12-18T12:16:53.258Z,-3.20
2022-12-18T12:19:36.340Z,-3.18
2022-12-18T12:22:18.404Z,-3.02
2022-12-18T12:25:01.885Z,-2.89
2022-12-18T12:27:40.947Z,-2.98
2022-12-18T12:30:12.929Z,-2.98
2022-12-18T12:32:55.383Z,-2.90
2022-12-18T12:35:34.042Z,-3.04
2022-12-18T12:38:13.143Z,-2.87
2022-12-18T12:40:53.891Z,-3.02
2022-12-18T12:43:33.370Z,-3.14
2022-12-18T12:46:07.826Z,-2.90
2022-12-18T12:48:44.551Z,-2.95
2022-12-18T12:51:21.653Z,-2.79
2022-12-18T12:53:55.532Z,-2.91
2022-12-18T12:56:29.955Z,-2.85
2022-12-18T12:59:11.548Z,-2.57
2022-12-18T13:01:50.959Z,-2.69
2022-12-18T13:04:29.055Z,-2.77
2022-12-18T13:07:06.679Z,-2.68
2022-12-18T13:10:17.760Z,-2.75
2022-12-18T13:12:58.825Z,-2.69
2022-12-18T13:15:36.481Z,-2.79
2022-12-18T13:18:18.223Z,-2.75
2022-12-18T13:20:53.702Z,-2.72
2022-12-18T13:23:31.617Z,-2.81
2022-12-18T13:26:02.904Z,-2.81
2022-12-18T13:29:00.566Z,-2.30
2022-12-18T13:32:08.848Z,-2.45
2022-12-18T13:34:38.990Z,-2.47
2022-12-18T13:37:54.205Z,-2.48
2022-12-18T13:40:57.443Z,-2.61
2022-12-18T13:43:32.000Z,-2.93
2022-12-18T13:46:18.723Z,-2.40
2022-12-18T13:48:55.567Z,-2.42
2022-12-18T13:51:28.483Z,-2.21
2022-12-18T13:54:09.405Z,-2.53
2022-12-18T13:56:46.193Z,-2.43
2022-12-18T13:59:23.003Z,-3.23
2022-12-18T14:01:58.095Z,-2.45
2022-12-18T14:04:30.765Z,-2.24
2022-12-18T14:07:04.906Z,-2.52
2022-12-18T14:09:38.893Z,-2.58
2022-12-18T14:12:35.509Z,-2.21
2022-12-18T14:15:07.346Z,-2.43
2022-12-18T14:17:38.765Z,-2.10
2022-12-18T14:20:16.800Z,-2.27
2022-12-18T14:22:51.137Z,-2.17
2022-12-18T14:25:26.440Z,-2.42
2022-12-18T14:28:10.971Z,-2.16
2022-12-18T14:30:45.865Z,-2.24
2022-12-18T14:33:19.515Z,-2.50
2022-12-18T14:35:59.856Z,-2.18
2022-12-18T14:38:31.811Z,-2.38
2022-12-18T14:41:03.254Z,-2.11
2022-12-18T14:43:35.561Z,-2.12
2022-12-18T14:46:08.255Z,-2.18
2022-12-18T14:49:18.707Z,-2.28
2022-12-18T14:51:50.871Z,-2.05
2022-12-18T14:54:22.274Z,-2.06
2022-12-18T14:56:53.713Z,-1.95
2022-12-18T14:59:25.254Z,-2.13
2022-12-18T15:02:02.985Z,-2.06
2022-12-18T15:04:36.932Z,-2.02
2022-12-18T15:07:17.612Z,-2.04
2022-12-18T15:10:05.878Z,-2.02
2022-12-18T15:12:39.174Z,-1.98
2022-12-18T15:15:42.396Z,-1.99
2022-12-18T15:18:16.595Z,-1.98
2022-12-18T15:20:49.359Z,-2.05
2022-12-18T15:23:21.779Z,-2.06
2022-12-18T15:25:57.763Z,-1.93
2022-12-18T15:28:31.562Z,-1.95
2022-12-18T15:31:06.053Z,-1.80
2022-12-18T15:33:37.004Z,-1.88
2022-12-18T15:36:11.545Z,-1.98
2022-12-18T15:38:40.534Z,-1.95
2022-12-18T15:41:17.842Z,-2.10
2022-12-18T15:43:51.712Z,-1.98
2022-12-18T15:46:23.396Z,-1.88
2022-12-18T15:48:59.631Z,-1.85
2022-12-18T15:51:35.224Z,-2.09
2022-12-18T15:54:06.269Z,-1.70
2022-12-18T15:56:52.585Z,-1.95
2022-12-18T15:59:22.538Z,-1.83
2022-12-18T16:02:23.854Z,-1.85
2022-12-18T16:04:55.181Z,-1.67
2022-12-18T16:07:28.088Z,-1.78
2022-12-18T16:10:06.653Z,-1.84
2022-12-18T16:12:38.096Z,-1.85
2022-12-18T16:15:26.930Z,-1.62
2022-12-18T16:17:56.040Z,-1.71
2022-12-18T16:20:27.906Z,-1.73
2022-12-18T16:22:58.555Z,-1.76
2022-12-18T16:25:37.475Z,-1.82
2022-12-18T16:28:09.058Z,-1.71
2022-12-18T16:30:41.621Z,-1.65
2022-12-18T16:33:12.137Z,-1.65
2022-12-18T16:35:45.588Z,-1.72
2022-12-18T16:38:15.971Z,-1.62
2022-12-18T16:41:00.770Z,-1.79
2022-12-18T16:43:33.084Z,-1.57
2022-12-18T16:46:04.932Z,-1.57
2022-12-18T16:48:38.662Z,-1.64
2022-12-18T16:51:11.129Z,-1.39
2022-12-18T16:53:45.486Z,-1.65
2022-12-18T16:56:18.399Z,-1.77
2022-12-18T16:58:52.684Z,-1.62
2022-12-18T17:01:22.031Z,-2.11
2022-12-18T17:03:55.377Z,-1.56
2022-12-18T17:06:25.576Z,-1.50
2022-12-18T17:09:01.262Z,-1.46
2022-12-18T17:11:34.431Z,-1.47
2022-12-18T17:14:08.439Z,-1.51
2022-12-18T17:16:37.360Z,-1.36
2022-12-18T17:19:10.978Z,-1.55
2022-12-18T17:21:49.887Z,-1.46
2022-12-18T17:24:20.829Z,-2.17
2022-12-18T17:26:52.273Z,-1.34
2022-12-18T17:29:22.015Z,-1.47
2022-12-18T17:31:53.180Z,-1.51
2022-12-18T17:34:24.495Z,-1.57
2022-12-18T17:36:53.950Z,-1.24
2022-12-18T17:39:28.756Z,-1.28
2022-12-18T17:41:57.712Z,-1.46
2022-12-18T17:44:27.230Z,-1.28
2022-12-18T17:46:56.578Z,-1.51
2022-12-18T17:49:26.146Z,-1.24
2022-12-18T17:51:54.981Z,-1.38
2022-12-18T17:54:24.112Z,-1.41
2022-12-18T17:56:54.853Z,-1.28
2022-12-18T17:59:26.534Z,-1.25
2022-12-18T18:01:55.987Z,-1.14
2022-12-18T18:04:25.164Z,-1.11
2022-12-18T18:06:53.966Z,-1.14
2022-12-18T18:09:22.897Z,-1.22
2022-12-18T18:12:09.561Z,-1.15
2022-12-18T18:14:40.170Z,-1.22
2022-12-18T18:17:09.657Z,-1.34
2022-12-18T18:19:39.355Z,-1.13
2022-12-18T18:22:09.770Z,-1.14
2022-12-18T18:24:38.712Z,-1.08
2022-12-18T18:27:07.635Z,-0.98
2022-12-18T18:29:36.798Z,-1.04
2022-12-18T18:32:07.457Z,-0.95
2022-12-18T18:34:36.654Z,-1.09
2022-12-18T18:37:05.984Z,-1.04
2022-12-18T18:39:37.756Z,-1.12
2022-12-18T18:42:06.769Z,-1.05
2022-12-18T18:44:35.575Z,-0.95
2022-12-18T18:47:09.608Z,-0.97
2022-12-18T18:49:38.457Z,-1.63
2022-12-18T18:52:08.416Z,-0.95
2022-12-18T18:55:11.636Z,-0.84
2022-12-18T18:58:17.549Z,-0.96
2022-12-18T19:00:46.829Z,-1.02
2022-12-18T19:03:21.228Z,-0.78
2022-12-18T19:05:53.495Z,-1.01
2022-12-18T19:08:22.283Z,-0.85
2022-12-18T19:10:58.112Z,-0.64
2022-12-18T19:13:28.649Z,-0.86
2022-12-18T19:16:04.907Z,-0.81
2022-12-18T19:18:38.126Z,-0.76
2022-12-18T19:21:09.354Z,-0.85
2022-12-18T19:23:46.966Z,-1.06
2022-12-18T19:26:27.365Z,-0.84
2022-12-18T19:29:02.714Z,-0.68
2022-12-18T19:31:35.715Z,-0.79
2022-12-18T19:34:08.029Z,-0.70
2022-12-18T19:36:39.521Z,-0.78
2022-12-18T19:39:12.324Z,-0.76
2022-12-18T19:41:41.819Z,-0.89
2022-12-18T19:44:13.377Z,-0.61
2022-12-18T19:46:42.991Z,-0.87
2022-12-18T19:49:18.072Z,-0.67
2022-12-18T19:51:50.517Z,-0.65
2022-12-18T19:54:19.845Z,-0.75
2022-12-18T19:56:52.914Z,-0.68
2022-12-18T19:59:22.186Z,-0.68
2022-12-18T20:01:54.580Z,-0.73
2022-12-18T20:04:25.453Z,-0.93
2022-12-18T20:06:55.108Z,-0.82
2022-12-18T20:09:24.575Z,-0.71
2022-12-18T20:11:54.598Z,-0.37
2022-12-18T20:14:23.926Z,-0.58
2022-12-18T20:16:53.499Z,-0.67
2022-12-18T20:19:25.049Z,-0.51
2022-12-18T20:21:53.785Z,-0.44
2022-12-18T20:24:22.832Z,-0.58
2022-12-18T20:26:51.477Z,-0.50
2022-12-18T20:29:20.347Z,-0.69
2022-12-18T20:31:49.177Z,-0.54
2022-12-18T20:34:18.410Z,-0.48
2022-12-18T20:36:49.479Z,-0.42
2022-12-18T20:39:18.796Z,-0.47
2022-12-18T20:41:48.033Z,-1.31
2022-12-18T20:44:22.348Z,-1.13
2022-12-18T20:46:54.651Z,-0.63
2022-12-18T20:49:24.191Z,-0.51
2022-12-18T20:51:56.371Z,-0.34
2022-12-18T20:54:29.019Z,-0.45
2022-12-18T20:56:58.369Z,-0.47
2022-12-18T20:59:27.415Z,-0.46
2022-12-18T21:01:56.954Z,-0.41
2022-12-18T21:04:26.144Z,-0.32
2022-12-18T21:07:02.347Z,-0.40
2022-12-18T21:09:37.173Z,-0.34
2022-12-18T21:12:30.198Z,-0.36
2022-12-18T21:15:09.753Z,-0.53
2022-12-18T21:17:44.678Z,-0.55
2022-12-18T21:20:17.954Z,-0.31
2022-12-18T21:22:49.628Z,-0.39
2022-12-18T21:25:19.139Z,-0.35
2022-12-18T21:27:50.588Z,-0.21
2022-12-18T21:30:19.935Z,-0.37
2022-12-18T21:32:49.371Z,-0.36
2022-12-18T21:35:18.259Z,-0.23
2022-12-18T21:37:50.786Z,-0.45
2022-12-18T21:40:19.896Z,-0.29
2022-12-18T21:43:06.365Z,-0.41
2022-12-18T21:45:35.768Z,-0.36
2022-12-18T21:48:04.583Z,-0.29
2022-12-18T21:50:34.788Z,-0.20
2022-12-18T21:53:05.428Z,-0.23
2022-12-18T21:55:34.740Z,-0.13
2022-12-18T21:58:06.080Z,-0.27
2022-12-18T22:01:04.350Z,-0.37
2022-12-18T22:03:33.730Z,-0.08
2022-12-18T22:06:09.181Z,-0.22
2022-12-18T22:08:43.764Z,-0.15
2022-12-18T22:11:13.852Z,-0.17
2022-12-18T22:13:43.567Z,-0.14
2022-12-18T22:16:12.368Z,-0.22
2022-12-18T22:18:41.138Z,-0.06
2022-12-18T22:21:29.405Z,-0.16
2022-12-18T22:24:01.765Z,-0.30
2022-12-18T22:26:37.862Z,-0.24
2022-12-18T22:29:26.068Z,-0.07
2022-12-18T22:31:55.284Z,-0.05
2022-12-18T22:34:24.423Z,-0.12
2022-12-18T22:36:53.498Z,-0.09
2022-12-18T22:39:25.729Z,0.04
2022-12-18T22:41:57.741Z,0.06
2022-12-18T22:44:26.527Z,-0.09
2022-12-18T22:47:06.315Z,0.05
2022-12-18T22:49:37.197Z,-0.93
2022-12-18T22:52:09.368Z,0.15
2022-12-18T22:54:39.842Z,-0.14
2022-12-18T22:57:11.187Z,-0.68
2022-12-18T22:59:39.887Z,0.00
2022-12-18T23:02:10.904Z,-0.02
2022-12-18T23:04:45.251Z,0.19
2022-12-18T23:07:17.362Z,0.15
2022-12-18T23:09:47.854Z,0.07
2022-12-18T23:12:21.621Z,0.08
2022-12-18T23:14:50.941Z,0.12
2022-12-18T23:17:19.914Z,0.27
2022-12-18T23:19:49.555Z,0.21
2022-12-18T23:22:18.647Z,0.05
2022-12-18T23:24:48.913Z,-0.10
2022-12-18T23:27:17.654Z,0.09
2022-12-18T23:29:46.340Z,0.07
2022-12-18T23:32:16.558Z,-0.02
2022-12-18T23:34:45.910Z,0.25
2022-12-18T23:37:35.370Z,-0.21
2022-12-18T23:40:05.402Z,-0.12
2022-12-18T23:42:34.143Z,0.11
2022-12-18T23:45:03.922Z,0.11
2022-12-18T23:47:41.266Z,0.10
2022-12-18T23:50:11.788Z,0.06
2022-12-18T23:52:43.258Z,0.22
2022-12-18T23:55:13.321Z,0.16
2022-12-18T23:57:41.979Z,0.24
